Time;durP1;ratioP1;P1;durP2;ratioP2;P2;SDS_P1;SDS_P2;PMS_P1;PMS_P2;Temp;Humidity;BMP_temperature;BMP_pressure;BME280_temperature;BME280_humidity;BME280_pressure;Samples;Min_cycle;Max_cycle;Signal;HPM_P1;HPM_P2
2022/04/03 00:00:01;;;;;;;3.65;2.37;;;;;;;3.53;85.34;96247.52;1682795;85;21408;-78
2022/04/03 00:02:31;;;;;;;4.55;2.58;;;;;;;3.53;84.93;96248.35;1682675;85;21085;-77
2022/04/03 00:04:58;;;;;;;3.40;2.47;;;;;;;3.57;85.28;96250.42;1682686;85;21058;-78
2022/04/03 00:07:24;;;;;;;4.25;2.62;;;;;;;3.54;84.95;96251.37;1682747;85;21030;-78
2022/04/03 00:09:50;;;;;;;3.87;2.95;;;;;;;3.53;85.07;96249.66;1682696;84;21535;-78
2022/04/03 00:12:17;;;;;;;3.35;2.52;;;;;;;3.54;84.84;96256.61;1682906;84;20983;-78
2022/04/03 00:14:43;;;;;;;3.85;2.85;;;;;;;3.52;84.66;96251.02;1683067;85;21074;-78
2022/04/03 00:17:09;;;;;;;3.77;2.72;;;;;;;3.49;84.27;96259.82;1682783;85;20987;-78
2022/04/03 00:19:36;;;;;;;3.45;2.80;;;;;;;3.42;84.14;96255.23;1682833;85;21511;-78
2022/04/03 00:22:03;;;;;;;3.83;2.60;;;;;;;3.34;83.94;96255.03;1682637;85;21043;-78
2022/04/03 00:24:30;;;;;;;4.87;3.20;;;;;;;3.17;84.11;96249.38;1682652;84;21031;-78
2022/04/03 00:26:56;;;;;;;3.83;3.10;;;;;;;3.15;84.12;96245.95;1682824;85;21046;-78
2022/04/03 00:29:23;;;;;;;4.10;2.85;;;;;;;3.13;84.13;96237.73;1682849;85;21010;-78
2022/04/03 00:31:50;;;;;;;4.70;3.05;;;;;;;3.12;84.30;96242.56;1682652;85;21416;-78
2022/04/03 00:34:17;;;;;;;5.15;3.27;;;;;;;3.07;84.90;96245.77;1682786;85;21475;-78
2022/04/03 00:36:43;;;;;;;3.98;3.30;;;;;;;2.98;84.79;96254.70;1682724;85;21015;-78
2022/04/03 00:39:10;;;;;;;4.37;2.75;;;;;;;2.95;84.62;96247.80;1680137;84;20999;-78
2022/04/03 00:41:39;;;;;;;4.85;3.40;;;;;;;2.92;84.76;96259.68;1682726;85;21077;-78
2022/04/03 00:44:06;;;;;;;6.28;3.90;;;;;;;2.83;85.24;96260.77;1682873;85;21520;-78
2022/04/03 00:46:34;;;;;;;4.28;3.30;;;;;;;2.83;84.65;96263.84;1682714;85;21409;-78
2022/04/03 00:49:01;;;;;;;4.55;3.20;;;;;;;2.75;85.00;96267.98;1682672;85;21070;-78
2022/04/03 00:51:29;;;;;;;4.90;3.02;;;;;;;2.66;85.30;96267.78;1682672;85;21054;-77
2022/04/03 00:53:56;;;;;;;4.22;3.25;;;;;;;2.62;85.93;96267.45;1668613;85;21095;-78
2022/04/03 00:56:23;;;;;;;5.58;3.37;;;;;;;2.61;85.40;96274.86;1691797;85;21056;-78
2022/04/03 00:58:50;;;;;;;4.45;3.30;;;;;;;2.64;85.26;96278.71;1658484;86;21011;-79
2022/04/03 01:01:17;;;;;;;5.55;3.72;;;;;;;2.69;85.52;96266.84;1691852;85;21493;-79
2022/04/03 01:03:44;;;;;;;5.40;3.72;;;;;;;2.70;85.66;96267.24;1658648;86;21441;-79
2022/04/03 01:06:10;;;;;;;6.85;4.15;;;;;;;2.74;85.31;96267.11;1691759;85;21016;-79
2022/04/03 01:08:37;;;;;;;5.17;3.70;;;;;;;2.79;85.18;96271.37;1658687;85;21039;-79
2022/04/03 01:11:04;;;;;;;5.90;3.75;;;;;;;2.83;85.07;96266.00;1691865;85;21068;-78
2022/04/03 01:13:31;;;;;;;5.22;3.45;;;;;;;2.84;85.36;96267.73;1658545;86;21043;-78
2022/04/03 01:15:59;;;;;;;5.45;3.12;;;;;;;2.84;85.30;96270.36;1691978;85;21032;-78
2022/04/03 01:18:27;;;;;;;4.97;3.62;;;;;;;2.80;85.61;96266.09;1691946;85;21088;-78
2022/04/03 01:20:54;;;;;;;4.90;3.45;;;;;;;2.75;85.25;96270.59;1658503;85;21004;-78
2022/04/03 01:23:23;;;;;;;4.60;3.17;;;;;;;2.72;84.92;96267.61;1691863;85;21453;-78
2022/04/03 01:25:49;;;;;;;5.72;3.33;;;;;;;2.70;85.07;96269.39;1691979;85;21016;-78
2022/04/03 01:28:19;;;;;;;7.67;3.87;;;;;;;2.72;84.96;96265.00;1691747;85;21055;-78
2022/04/03 01:30:44;;;;;;;5.65;4.10;;;;;;;2.76;85.04;96267.95;1691495;85;21122;-78
2022/04/03 01:33:11;;;;;;;4.67;3.50;;;;;;;2.83;85.03;96267.30;1691930;85;21072;-78
2022/04/03 01:35:37;;;;;;;4.70;3.40;;;;;;;2.85;85.24;96268.14;1658632;86;21097;-79
2022/04/03 01:38:04;;;;;;;4.40;3.30;;;;;;;2.89;85.00;96267.60;1691952;85;21438;-78
2022/04/03 01:40:34;;;;;;;5.92;3.72;;;;;;;2.91;85.07;96267.13;1658782;86;21063;-78
2022/04/03 01:42:58;;;;;;;4.72;3.55;;;;;;;2.94;84.80;96271.42;1691580;85;21001;-78
2022/04/03 01:45:25;;;;;;;5.35;3.83;;;;;;;2.87;84.20;96272.88;1658620;86;21063;-78
2022/04/03 01:47:51;;;;;;;5.20;3.55;;;;;;;2.89;84.87;96266.30;1691749;85;20981;-78
2022/04/03 01:50:18;;;;;;;5.42;3.58;;;;;;;2.88;84.49;96268.07;1658378;86;21437;-78
2022/04/03 01:52:44;;;;;;;4.75;3.62;;;;;;;2.91;84.56;96271.05;1691943;85;21052;-79
2022/04/03 01:55:11;;;;;;;4.72;3.40;;;;;;;2.78;83.79;96270.50;1681031;85;21043;-79
2022/04/03 01:57:38;;;;;;;4.20;3.30;;;;;;;2.66;84.14;96277.38;1693592;85;21051;-79
2022/04/03 02:00:06;;;;;;;4.83;3.55;;;;;;;2.57;84.47;96281.93;1681585;85;21039;-78
2022/04/03 02:02:34;;;;;;;6.03;3.58;;;;;;;2.59;84.54;96288.44;1681518;85;20996;-79
2022/04/03 02:05:00;;;;;;;6.12;3.75;;;;;;;2.54;84.62;96279.41;1681529;85;21055;-79
2022/04/03 02:07:29;;;;;;;5.05;3.60;;;;;;;2.47;84.75;96270.86;1681560;85;21465;-79
2022/04/03 02:09:55;;;;;;;5.75;3.70;;;;;;;2.47;84.86;96273.47;1681386;85;21055;-79
2022/04/03 02:12:22;;;;;;;5.67;3.67;;;;;;;2.42;84.58;96271.42;1681591;85;21007;-79
2022/04/03 02:14:48;;;;;;;5.35;3.60;;;;;;;2.41;84.45;96274.91;1681455;85;21442;-79
2022/04/03 02:17:15;;;;;;;5.33;4.05;;;;;;;2.35;85.48;96275.07;1681398;85;21422;-79
2022/04/03 02:19:41;;;;;;;6.58;4.05;;;;;;;2.32;85.32;96279.09;1693670;85;21060;-79
2022/04/03 02:22:10;;;;;;;5.10;3.72;;;;;;;2.32;84.95;96276.01;1693571;84;21056;-78
2022/04/03 02:24:37;;;;;;;6.22;3.90;;;;;;;2.33;84.92;96272.95;1693467;85;21051;-79
2022/04/03 02:27:05;;;;;;;5.45;4.08;;;;;;;2.38;85.36;96280.23;1693554;85;21064;-78
2022/04/03 02:29:31;;;;;;;6.45;4.00;;;;;;;2.33;85.62;96279.02;1681432;85;21039;-78
2022/04/03 02:31:59;;;;;;;5.70;3.77;;;;;;;2.31;85.40;96282.58;1693419;85;21422;-78
2022/04/03 02:34:27;;;;;;;5.67;3.80;;;;;;;2.31;85.42;96289.11;1681575;85;21031;-79
2022/04/03 02:36:53;;;;;;;5.45;3.98;;;;;;;2.32;85.10;96284.31;1693454;85;21067;-79
2022/04/03 02:39:20;;;;;;;10.18;4.75;;;;;;;2.33;85.40;96289.95;1681386;85;21082;-79
2022/04/03 02:41:47;;;;;;;6.22;3.95;;;;;;;2.37;85.46;96289.83;1681422;85;21068;-79
2022/04/03 02:44:15;;;;;;;5.65;3.98;;;;;;;2.42;85.27;96290.16;1681385;85;21071;-79
2022/04/03 02:46:41;;;;;;;6.40;4.10;;;;;;;2.44;85.05;96292.28;1681556;85;21460;-79
2022/04/03 02:49:08;;;;;;;5.25;3.67;;;;;;;2.41;84.96;96291.91;1681562;85;20972;-79
2022/04/03 02:51:36;;;;;;;5.75;3.60;;;;;;;2.40;84.99;96293.28;1681414;85;21059;-79
2022/04/03 02:54:03;;;;;;;5.80;3.77;;;;;;;2.34;84.77;96291.66;1681909;84;21059;-79
2022/04/03 02:56:30;;;;;;;4.75;3.50;;;;;;;2.32;84.75;96294.30;1682455;85;21006;-80
2022/04/03 02:58:56;;;;;;;6.67;3.95;;;;;;;2.32;85.10;96295.61;1682593;85;21038;-79
2022/04/03 03:01:23;;;;;;;5.75;4.03;;;;;;;2.34;84.65;96300.81;1682893;85;21470;-79
2022/04/03 03:03:50;;;;;;;5.65;3.80;;;;;;;2.34;84.71;96292.97;1682832;85;21070;-80
2022/04/03 04:22:13;;;;;;;8.50;5.67;;;;;;;2.42;84.68;96357.70;1784372;79;22893;-79
2022/04/03 04:24:40;;;;;;;9.40;6.55;;;;;;;2.32;85.12;96368.81;1757734;81;20965;-79
2022/04/03 04:27:06;;;;;;;7.30;5.17;;;;;;;2.35;85.47;96370.50;1757726;82;21083;-79
2022/04/03 04:29:33;;;;;;;6.12;4.80;;;;;;;2.37;85.71;96371.34;1757815;82;21044;-79
2022/04/03 04:32:01;;;;;;;7.55;4.78;;;;;;;2.41;85.89;96372.96;1757688;82;21449;-79
2022/04/03 04:34:27;;;;;;;7.85;5.25;;;;;;;2.46;85.87;96380.72;1757719;82;21059;-78
2022/04/03 04:36:55;;;;;;;7.75;4.90;;;;;;;2.50;85.44;96382.37;1757580;82;20981;-78
2022/04/03 04:39:22;;;;;;;6.75;4.87;;;;;;;2.49;85.46;96388.50;1758254;81;21413;-79
2022/04/03 04:41:48;;;;;;;6.47;4.40;;;;;;;2.52;85.73;96384.48;1757857;82;21007;-79
2022/04/03 04:44:15;;;;;;;6.70;4.75;;;;;;;2.48;84.48;96391.55;1757848;82;21049;-78
2022/04/03 04:46:42;;;;;;;7.25;5.42;;;;;;;2.44;84.12;96386.41;1758025;82;21258;-79
2022/04/03 04:49:08;;;;;;;7.03;4.42;;;;;;;2.41;84.90;96392.57;1757917;81;21040;-79
2022/04/03 04:51:35;;;;;;;8.10;5.10;;;;;;;2.46;85.09;96391.17;1757757;81;20992;-79
2022/04/03 04:54:02;;;;;;;6.55;4.67;;;;;;;2.46;84.90;96396.41;1758210;82;21065;-79
2022/04/03 04:56:30;;;;;;;7.03;5.00;;;;;;;2.50;85.21;96401.52;1757998;82;20968;-79
2022/04/03 04:58:57;;;;;;;7.33;4.95;;;;;;;2.55;85.26;96394.89;1757917;82;20980;-79
2022/04/03 05:01:23;;;;;;;7.62;5.05;;;;;;;2.57;84.97;96396.16;1757873;82;21440;-79
2022/04/03 05:03:50;;;;;;;8.50;5.22;;;;;;;2.55;84.23;96400.55;1757347;82;21000;-78
2022/04/03 05:06:16;;;;;;;7.03;4.67;;;;;;;2.49;84.37;96408.11;1758343;81;20945;-79
2022/04/03 05:08:45;;;;;;;8.08;5.05;;;;;;;2.44;84.41;96407.33;1757585;82;21023;-79
2022/04/03 05:11:13;;;;;;;7.92;4.58;;;;;;;2.34;84.61;96412.80;1758283;82;21032;-78
2022/04/03 05:13:40;;;;;;;7.33;5.03;;;;;;;2.33;84.63;96417.58;1758085;82;21467;-78
2022/04/03 05:16:07;;;;;;;7.78;5.25;;;;;;;2.35;84.20;96417.55;1757872;81;21059;-78
2022/04/03 05:18:37;;;;;;;9.73;5.30;;;;;;;2.34;84.10;96421.07;1757821;82;21486;-79
2022/04/03 05:21:05;;;;;;;7.10;4.53;;;;;;;2.34;84.46;96420.64;1758241;81;21020;-79
2022/04/03 05:23:32;;;;;;;8.00;5.03;;;;;;;2.42;84.54;96419.16;1757636;82;20972;-78
2022/04/03 05:25:58;;;;;;;7.92;4.95;;;;;;;2.45;84.23;96425.60;1757350;82;21044;-79
2022/04/03 05:28:26;;;;;;;8.75;5.55;;;;;;;2.50;84.30;96421.59;1757186;82;21040;-79
2022/04/03 05:30:53;;;;;;;8.70;5.22;;;;;;;2.55;84.28;96430.62;1757182;81;21310;-79
2022/04/03 05:33:20;;;;;;;8.88;5.12;;;;;;;2.61;84.18;96427.86;1756886;82;21000;-78
2022/04/03 05:35:46;;;;;;;8.45;5.45;;;;;;;2.65;84.26;96434.75;1757087;82;21003;-78
2022/04/03 05:38:13;;;;;;;6.58;5.03;;;;;;;2.70;84.32;96430.73;1756806;82;21031;-78
2022/04/03 05:40:40;;;;;;;7.50;4.50;;;;;;;2.74;83.87;96437.16;1757761;82;20961;-78
2022/04/03 05:43:08;;;;;;;7.15;4.78;;;;;;;2.80;83.99;96437.91;1757563;82;21071;-78
2022/04/03 05:45:35;;;;;;;6.47;4.40;;;;;;;2.84;83.88;96443.48;1757114;82;21310;-78
2022/04/03 05:48:02;;;;;;;6.83;4.78;;;;;;;2.88;83.78;96434.66;1757037;82;21035;-79
2022/04/03 05:50:28;;;;;;;16.15;8.95;;;;;;;2.93;83.60;96437.16;1756658;82;21039;-79
2022/04/03 05:52:55;;;;;;;55.30;30.68;;;;;;;2.98;83.56;96444.45;1756530;82;20945;-79
2022/04/03 05:55:22;;;;;;;8.13;4.90;;;;;;;2.98;82.86;96445.31;1756591;82;21020;-79
2022/04/03 05:57:52;;;;;;;5.87;4.20;;;;;;;2.96;82.81;96445.81;1757268;82;21004;-79
2022/04/03 06:00:23;;;;;;;6.28;4.83;;;;;;;3.00;82.82;96451.36;1757063;82;21032;-79
2022/04/03 06:02:59;;;;;;;6.30;4.17;;;;;;;3.03;82.70;96453.92;1757046;82;20984;-78
2022/04/03 06:05:29;;;;;;;4.97;3.65;;;;;;;2.95;81.83;96453.70;1757276;82;20981;-79
2022/04/03 06:07:57;;;;;;;5.33;3.75;;;;;;;2.98;82.72;96454.48;1757116;81;21012;-78
2022/04/03 06:10:25;;;;;;;4.85;3.20;;;;;;;3.03;82.58;96453.92;1756941;82;20976;-78
2022/04/03 06:12:55;;;;;;;4.58;3.50;;;;;;;3.06;82.11;96462.61;1757140;82;21044;-78
2022/04/03 06:15:23;;;;;;;4.72;3.33;;;;;;;3.08;82.12;96461.67;1757055;81;21011;-78
2022/04/03 06:17:52;;;;;;;6.03;3.77;;;;;;;3.17;82.47;96474.98;1757084;82;21009;-78
2022/04/03 06:20:19;;;;;;;4.45;2.60;;;;;;;3.26;82.13;96480.42;1756787;82;20992;-78
2022/04/03 06:22:46;;;;;;;5.33;2.90;;;;;;;3.16;77.62;96485.05;1757168;81;21008;-79
2022/04/03 06:25:12;;;;;;;3.58;2.47;;;;;;;3.15;78.67;96479.37;1757746;82;21007;-79
2022/04/03 06:27:39;;;;;;;4.78;2.72;;;;;;;3.10;79.04;96490.41;1756837;81;21432;-79
2022/04/03 06:30:08;;;;;;;4.42;3.00;;;;;;;3.10;79.01;96483.42;1756919;81;21052;-79
2022/04/03 06:32:34;;;;;;;4.03;2.55;;;;;;;3.17;79.75;96487.59;1757608;82;20977;-79
2022/04/03 06:35:01;;;;;;;4.47;2.70;;;;;;;3.24;80.04;96489.63;1757806;82;20980;-79
2022/04/03 06:37:27;;;;;;;4.22;2.60;;;;;;;3.35;78.95;96488.49;1757307;82;21040;-79
2022/04/03 06:39:54;;;;;;;5.33;3.27;;;;;;;3.32;78.92;96496.44;1757646;82;20996;-79
2022/04/03 06:42:21;;;;;;;4.65;2.95;;;;;;;3.36;79.09;96480.60;1757367;81;20988;-79
2022/04/03 06:44:48;;;;;;;3.98;3.02;;;;;;;3.42;78.99;96499.23;1756993;82;20972;-79
2022/04/03 06:47:14;;;;;;;5.60;2.95;;;;;;;3.47;78.63;96501.73;1757282;82;21449;-79
2022/04/03 06:49:41;;;;;;;3.17;2.08;;;;;;;3.54;79.06;96512.01;1757596;82;21108;-79
2022/04/03 06:52:11;;;;;;;3.47;2.40;;;;;;;3.62;78.47;96509.66;1757572;82;20977;-78
2022/04/03 06:54:37;;;;;;;3.55;2.20;;;;;;;3.65;77.13;96509.13;1757501;82;21087;-79
2022/04/03 06:57:04;;;;;;;3.17;2.62;;;;;;;3.52;74.53;96520.80;1757701;82;21044;-79
2022/04/03 06:59:31;;;;;;;5.00;3.35;;;;;;;3.55;76.19;96521.61;1757406;82;21072;-79
2022/04/03 07:01:58;;;;;;;5.45;3.83;;;;;;;3.62;77.04;96529.31;1757505;82;20976;-79
2022/04/03 07:04:25;;;;;;;4.92;3.70;;;;;;;3.62;76.86;96527.56;1757157;82;21058;-78
2022/04/03 07:06:51;;;;;;;3.25;2.60;;;;;;;3.61;76.98;96527.13;1757548;82;21505;-78
2022/04/03 07:09:18;;;;;;;4.33;3.20;;;;;;;3.61;75.93;96529.74;1757533;82;20976;-78
2022/04/03 07:11:44;;;;;;;23.85;12.85;;;;;;;3.57;75.31;96543.81;1757494;81;21012;-78
2022/04/03 07:14:11;;;;;;;5.40;4.12;;;;;;;3.47;75.85;96543.20;1757526;82;21056;-79
2022/04/03 07:16:37;;;;;;;4.80;3.50;;;;;;;3.49;76.79;96553.17;1757573;82;21063;-79
2022/04/03 07:19:04;;;;;;;4.00;3.35;;;;;;;3.52;76.31;96550.93;1757854;82;21444;-79
2022/04/03 07:21:32;;;;;;;3.77;2.70;;;;;;;3.46;76.05;96559.82;1757203;81;21000;-79
2022/04/03 07:23:59;;;;;;;2.95;2.30;;;;;;;3.34;74.51;96570.58;1757084;82;21039;-79
2022/04/03 07:26:26;;;;;;;3.83;2.85;;;;;;;3.27;74.10;96561.56;1757430;82;21016;-79
2022/04/03 07:28:52;;;;;;;2.80;2.20;;;;;;;3.32;73.95;96561.44;1757453;82;21507;-79
2022/04/03 07:31:19;;;;;;;2.85;2.55;;;;;;;3.22;72.14;96560.81;1757346;82;21012;-79
2022/04/03 07:33:46;;;;;;;3.27;2.77;;;;;;;3.22;74.50;96559.94;1757563;82;21740;-78
2022/04/03 07:36:13;;;;;;;4.05;2.83;;;;;;;3.35;75.12;96573.16;1757464;82;21421;-78
2022/04/03 07:38:39;;;;;;;3.52;2.47;;;;;;;3.34;74.32;96566.64;1757495;82;21001;-78
2022/04/03 07:41:06;;;;;;;3.87;3.08;;;;;;;3.45;74.75;96572.95;1757476;82;20999;-79
2022/04/03 07:43:32;;;;;;;3.45;2.80;;;;;;;3.53;74.56;96563.16;1757545;82;21000;-80
2022/04/03 07:45:59;;;;;;;3.25;2.75;;;;;;;3.61;74.00;96577.38;1757420;82;21123;-79
2022/04/03 07:48:25;;;;;;;3.90;2.98;;;;;;;3.60;71.65;96588.28;1757334;82;20985;-79
2022/04/03 07:50:53;;;;;;;3.58;3.00;;;;;;;3.58;73.36;96589.22;1757384;82;21047;-79
2022/04/03 07:53:20;;;;;;;4.03;2.87;;;;;;;3.67;74.39;96583.33;1757507;82;21044;-79
2022/04/03 07:55:46;;;;;;;4.20;3.45;;;;;;;3.84;74.46;96587.27;1757544;82;21075;-79
2022/04/03 07:58:13;;;;;;;4.90;3.40;;;;;;;3.94;74.56;96586.13;1757408;81;20985;-78
2022/04/03 08:00:39;;;;;;;4.15;3.00;;;;;;;4.05;74.03;96593.72;1757597;81;21460;-79
2022/04/03 08:03:07;;;;;;;4.40;3.30;;;;;;;4.11;72.78;96591.84;1757569;82;21009;-79
2022/04/03 08:05:34;;;;;;;4.40;3.58;;;;;;;4.14;72.43;96600.91;1757411;82;21102;-78
2022/04/03 08:08:00;;;;;;;4.08;3.33;;;;;;;4.12;71.17;96597.05;1757450;82;21310;-79
2022/04/03 08:10:27;;;;;;;3.17;2.70;;;;;;;4.19;71.03;96597.75;1757379;82;21039;-79
2022/04/03 08:12:53;;;;;;;3.58;3.02;;;;;;;4.20;71.81;96609.48;1757333;81;21309;-79
2022/04/03 08:15:21;;;;;;;3.95;3.15;;;;;;;4.24;70.87;96598.48;1757238;82;20991;-79
2022/04/03 08:17:48;;;;;;;4.58;3.15;;;;;;;4.34;71.67;96606.52;1756573;82;21043;-79
2022/04/03 08:20:18;;;;;;;4.17;3.20;;;;;;;4.40;71.22;96603.31;1756213;81;21071;-78
2022/04/03 08:22:47;;;;;;;3.20;2.90;;;;;;;4.37;70.22;96617.37;1766661;81;21012;-78
2022/04/03 08:25:14;;;;;;;3.52;2.80;;;;;;;4.42;70.74;96618.55;1770347;81;21058;-78
2022/04/03 08:27:47;;;;;;;4.60;3.12;;;;;;;4.54;71.14;96617.35;1770732;81;21011;-77
2022/04/03 08:30:18;;;;;;;3.92;2.90;;;;;;;4.66;71.63;96624.89;1770999;81;21390;-77
2022/04/03 08:32:46;;;;;;;3.47;3.15;;;;;;;4.75;70.41;96631.64;1771097;81;22004;-77
2022/04/03 08:35:15;;;;;;;4.95;3.10;;;;;;;4.64;67.61;96632.41;1771012;81;21035;-77
2022/04/03 08:37:42;;;;;;;3.47;3.00;;;;;;;4.40;67.66;96633.01;1771254;81;20964;-78
2022/04/03 08:40:10;;;;;;;3.42;2.77;;;;;;;4.33;67.19;96635.41;1770844;81;21063;-78
2022/04/03 08:42:38;;;;;;;3.70;3.10;;;;;;;4.32;68.71;96642.40;1770937;81;20971;-78
2022/04/03 08:45:11;;;;;;;4.15;2.95;;;;;;;4.28;68.69;96651.24;1770907;81;21075;-78
2022/04/03 08:47:42;;;;;;;3.12;2.65;;;;;;;4.29;68.55;96657.36;1770977;81;20992;-78
2022/04/03 08:50:10;;;;;;;3.62;2.60;;;;;;;4.25;69.52;96652.66;1770500;81;21471;-78
2022/04/03 08:52:39;;;;;;;5.00;3.30;;;;;;;4.29;67.30;96647.74;1770421;81;21043;-78
2022/04/03 08:55:06;;;;;;;4.40;2.83;;;;;;;4.31;68.98;96659.05;1770742;81;21074;-79
2022/04/03 08:57:33;;;;;;;2.98;2.67;;;;;;;4.28;67.06;96655.17;1770281;81;21420;-78
2022/04/03 09:00:01;;;;;;;3.62;2.80;;;;;;;4.32;68.26;96663.84;1771003;81;20987;-78
2022/04/03 09:02:28;;;;;;;3.98;2.83;;;;;;;4.32;68.42;96662.06;1771083;81;21066;-78
2022/04/03 09:04:55;;;;;;;2.98;2.50;;;;;;;4.31;68.76;96674.78;1770988;81;21031;-79
2022/04/03 09:07:21;;;;;;;4.10;3.10;;;;;;;4.35;68.52;96667.25;1771340;81;20991;-79
2022/04/03 09:10:00;;;;;;;3.22;2.70;;;;;;;4.39;68.63;96675.89;1771438;81;21023;-79
2022/04/03 09:12:26;;;;;;;3.85;2.77;;;;;;;4.26;66.99;96677.97;1770842;81;21035;-79
2022/04/03 09:14:55;;;;;;;4.00;3.05;;;;;;;4.29;68.59;96681.84;1771224;81;21040;-79
2022/04/03 09:17:42;;;;;;;3.08;2.77;;;;;;;4.45;68.43;96679.66;1771432;81;21059;-80
2022/04/03 09:20:14;;;;;;;4.28;2.80;;;;;;;4.42;66.61;96664.45;1771440;81;20999;-78
2022/04/03 09:22:44;;;;;;;3.35;2.77;;;;;;;4.52;67.85;96672.48;1768371;80;21059;-78
2022/04/03 09:25:16;;;;;;;2.70;2.40;;;;;;;4.61;67.23;96680.59;1768918;81;21412;-79
2022/04/03 09:27:49;;;;;;;2.98;2.62;;;;;;;4.69;67.38;96686.94;1768736;81;21035;-79
2022/04/03 09:30:35;;;;;;;4.67;3.00;;;;;;;4.67;64.47;96690.91;1769258;81;21456;-78
2022/04/03 09:33:05;;;;;;;5.28;3.55;;;;;;;4.74;65.95;96680.64;1769290;81;21012;-80
2022/04/03 09:35:54;;;;;;;3.45;2.50;;;;;;;4.87;66.18;96693.44;1768989;81;21028;-79
2022/04/03 09:38:21;;;;;;;3.10;2.55;;;;;;;4.84;65.57;96697.01;1763836;81;21015;-80
2022/04/03 09:40:52;;;;;;;2.83;2.40;;;;;;;4.76;65.01;96689.79;1768854;81;21515;-79
2022/04/03 09:43:34;;;;;;;3.30;2.55;;;;;;;4.78;65.43;96692.37;1768907;81;21035;-79
2022/04/03 09:46:08;;;;;;;3.45;2.62;;;;;;;4.77;64.13;96702.47;1768983;81;21456;-78
2022/04/03 09:48:43;;;;;;;3.05;2.60;;;;;;;4.81;64.41;96691.83;1742957;81;21094;-79
2022/04/03 09:51:19;;;;;;;3.33;2.83;;;;;;;4.91;65.54;96687.64;1768713;81;21071;-79
2022/04/03 09:53:47;;;;;;;;;;;;;;;5.00;64.40;96695.27;1770560;81;21039;-79
2022/04/03 09:56:29;;;;;;;3.33;2.50;;;;;;;5.05;64.73;96702.56;1731538;83;20120;-79
2022/04/03 09:59:08;;;;;;;2.72;2.22;;;;;;;5.16;63.60;96698.32;1729636;83;20999;-79
2022/04/03 10:01:40;;;;;;;2.72;1.87;;;;;;;5.26;63.77;96701.09;1702728;84;21054;-79
2022/04/03 10:04:10;;;;;;;2.60;1.90;;;;;;;5.46;64.17;96696.13;1732181;83;21014;-79
2022/04/03 10:06:38;;;;;;;2.80;2.25;;;;;;;5.47;58.52;96700.48;1755372;82;21421;-79
2022/04/03 10:09:11;;;;;;;3.67;2.12;;;;;;;5.58;60.12;96698.84;1755213;82;21466;-79
2022/04/03 10:11:39;;;;;;;2.42;1.87;;;;;;;5.54;59.25;96707.28;1755363;82;21429;-79
2022/04/03 10:14:07;;;;;;;2.50;2.08;;;;;;;5.56;60.02;96706.77;1755486;81;21080;-79
2022/04/03 10:16:33;;;;;;;6.75;4.90;;;;;;;5.76;60.38;96706.61;1755244;82;21015;-79
2022/04/03 10:19:00;;;;;;;2.55;2.02;;;;;;;6.06;61.09;96713.16;1730373;82;21007;-79
2022/04/03 10:21:53;;;;;;;2.55;2.05;;;;;;;6.23;59.07;96715.71;1755027;82;21058;-79
2022/04/03 10:24:24;;;;;;;2.00;1.80;;;;;;;5.79;56.14;96727.12;1754196;82;21460;-81
2022/04/03 10:27:01;;;;;;;4.47;1.98;;;;;;;5.39;56.88;96716.47;1755129;82;21004;-79
2022/04/03 10:29:34;;;;;;;2.35;1.80;;;;;;;5.20;57.32;96743.30;1755000;82;21172;-78
2022/04/03 10:32:05;;;;;;;3.50;1.98;;;;;;;4.92;58.34;96751.05;1754693;82;21464;-78
2022/04/03 10:34:51;;;;;;;4.25;2.15;;;;;;;4.90;58.38;96745.84;1755197;82;21032;-79
2022/04/03 10:37:34;;;;;;;2.70;2.10;;;;;;;4.80;58.50;96760.99;1755381;81;21020;-79
2022/04/03 10:40:16;;;;;;;3.90;2.20;;;;;;;4.94;59.96;96758.45;1755300;81;21016;-79
2022/04/03 10:43:02;;;;;;;3.12;1.92;;;;;;;5.05;60.43;96768.20;1755236;82;21998;-80
2022/04/03 10:45:39;;;;;;;2.95;2.08;;;;;;;4.97;60.40;96766.23;1754811;82;21095;-79
2022/04/03 10:48:26;;;;;;;2.50;2.10;;;;;;;4.94;60.77;96761.92;1754777;82;21055;-79
2022/04/03 10:51:06;;;;;;;3.00;2.20;;;;;;;5.00;61.68;96777.98;1754934;82;21087;-80
2022/04/03 10:53:43;;;;;;;3.50;2.52;;;;;;;5.02;61.37;96779.66;1754517;82;21328;-80
2022/04/03 10:56:20;;;;;;;3.67;2.70;;;;;;;4.89;61.26;96790.94;1754612;82;21425;-78
2022/04/03 10:58:50;;;;;;;2.67;2.20;;;;;;;4.74;61.71;96786.09;1754470;82;21059;-79
2022/04/03 11:01:33;;;;;;;3.17;2.33;;;;;;;4.60;62.37;96792.55;1754530;81;22416;-79
2022/04/03 11:04:13;;;;;;;3.25;2.37;;;;;;;4.48;61.73;96789.78;1729047;82;21013;-79
2022/04/03 11:06:43;;;;;;;4.28;2.47;;;;;;;4.43;62.25;96793.41;1754350;82;21539;-78
2022/04/03 11:09:14;;;;;;;11.78;7.15;;;;;;;4.49;62.43;96798.52;1755177;82;21334;-79
2022/04/03 11:11:54;;;;;;;15.08;8.63;;;;;;;4.54;62.92;96799.27;1752926;82;21175;-79
2022/04/03 11:14:56;;;;;;;3.92;2.95;;;;;;;4.57;63.23;96804.89;1754199;82;21367;-79
2022/04/03 11:17:50;;;;;;;4.10;2.60;;;;;;;4.57;63.46;96809.67;1754624;82;21532;-79
2022/04/03 11:20:40;;;;;;;2.95;2.37;;;;;;;4.29;62.12;96823.47;1754343;82;21035;-78
2022/04/03 11:23:14;;;;;;;3.20;2.45;;;;;;;4.08;61.59;96834.84;1754294;81;21075;-79
2022/04/03 11:25:41;;;;;;;4.60;2.47;;;;;;;3.98;62.37;96820.22;1754564;82;21580;-79
2022/04/03 11:28:08;;;;;;;3.65;2.47;;;;;;;3.79;61.98;96821.08;1753961;82;21104;-78
2022/04/03 11:30:36;;;;;;;2.85;2.42;;;;;;;3.61;62.24;96834.12;1728737;82;21040;-79
2022/04/03 11:33:04;;;;;;;4.10;2.45;;;;;;;3.57;62.83;96828.06;1754468;82;21052;-79
2022/04/03 11:35:37;;;;;;;3.02;2.33;;;;;;;3.53;62.78;96835.12;1754210;82;21107;-79
2022/04/03 11:38:05;;;;;;;3.40;2.80;;;;;;;3.47;62.43;96861.45;1754291;82;21071;-79
2022/04/03 11:40:34;;;;;;;3.98;2.87;;;;;;;3.49;63.01;96845.24;1754249;82;21028;-79
2022/04/03 11:43:14;;;;;;;4.08;2.90;;;;;;;3.56;62.67;96848.61;1754046;82;21047;-78
2022/04/03 11:45:45;;;;;;;4.33;3.00;;;;;;;3.46;62.39;96841.83;1754301;81;21019;-78
2022/04/03 11:48:24;;;;;;;3.80;3.08;;;;;;;3.42;63.02;96873.34;1750177;82;21441;-79
2022/04/03 11:51:11;;;;;;;4.62;3.17;;;;;;;3.29;63.04;96858.28;1754192;82;21055;-79
2022/04/03 11:53:40;;;;;;;4.60;3.50;;;;;;;3.36;63.88;96876.05;1754968;82;21051;-79
2022/04/03 11:56:17;;;;;;;4.50;3.30;;;;;;;3.47;63.57;96870.63;1754282;82;20996;-79
2022/04/03 11:58:51;;;;;;;4.87;3.33;;;;;;;3.43;63.13;96865.02;1754524;82;21075;-79
2022/04/03 12:01:28;;;;;;;5.58;3.83;;;;;;;3.42;63.06;96883.82;1729329;82;21027;-79
2022/04/03 12:04:13;;;;;;;4.33;3.27;;;;;;;3.32;63.35;96891.40;1753790;82;21508;-79
2022/04/03 12:06:42;;;;;;;4.90;3.27;;;;;;;3.37;63.72;96890.02;1754495;81;21028;-78
2022/04/03 12:09:15;;;;;;;4.65;3.87;;;;;;;3.30;62.91;96892.77;1754330;82;21505;-78
2022/04/03 12:11:47;;;;;;;4.78;4.10;;;;;;;3.34;63.41;96880.91;1754787;81;21039;-80
2022/04/03 12:14:26;;;;;;;5.87;3.80;;;;;;;3.34;62.99;96904.04;1755066;81;20997;-78
2022/04/03 12:17:06;;;;;;;4.60;3.40;;;;;;;3.41;63.75;96895.62;1755485;81;21009;-79
2022/04/03 12:19:47;;;;;;;5.03;3.87;;;;;;;3.42;63.01;96903.46;1754897;82;21075;-79
2022/04/03 12:22:18;;;;;;;4.50;3.87;;;;;;;3.50;63.19;96903.31;1755371;81;21022;-79
2022/04/03 12:24:47;;;;;;;4.85;3.60;;;;;;;3.71;63.38;96911.65;1755478;82;21036;-80
2022/04/03 12:27:22;;;;;;;5.50;3.80;;;;;;;3.83;63.27;96891.73;1755335;82;21394;-80
2022/04/03 12:29:53;;;;;;;4.92;3.58;;;;;;;4.03;63.47;96902.25;1755537;82;21047;-79
2022/04/03 12:32:35;;;;;;;6.62;3.90;;;;;;;4.12;62.34;96902.53;1755500;82;21028;-78
2022/04/03 12:35:05;;;;;;;4.12;3.33;;;;;;;4.17;62.34;96913.78;1755826;82;20992;-79
2022/04/03 12:37:40;;;;;;;5.92;4.00;;;;;;;4.08;62.23;96920.06;1755615;82;21456;-80
2022/04/03 12:40:11;;;;;;;5.12;3.85;;;;;;;4.06;62.82;96927.11;1755339;82;21043;-79
2022/04/03 12:42:41;;;;;;;5.75;4.20;;;;;;;3.90;63.28;96912.59;1755515;81;21059;-79
2022/04/03 12:45:20;;;;;;;5.37;4.12;;;;;;;3.80;63.67;96936.80;1755681;82;21055;-79
2022/04/03 12:48:00;;;;;;;5.58;4.10;;;;;;;3.80;63.92;96935.49;1755729;82;21382;-79
2022/04/03 12:50:46;;;;;;;4.83;4.20;;;;;;;3.56;64.59;96936.37;1755494;81;21039;-79
2022/04/03 12:53:15;;;;;;;5.45;3.95;;;;;;;3.55;64.23;96942.52;1755732;82;21001;-79
2022/04/03 12:55:51;;;;;;;7.47;4.65;;;;;;;3.46;64.77;96939.63;1755297;82;21004;-79
2022/04/03 12:58:24;;;;;;;5.40;3.90;;;;;;;3.58;65.01;96928.05;1754480;82;21521;-79
2022/04/03 13:01:15;;;;;;;5.10;4.10;;;;;;;3.63;64.81;96934.07;1755581;82;21410;-79
2022/04/03 13:03:49;;;;;;;3.62;2.75;;;;;;;3.68;64.50;96934.84;1755139;82;21102;-79
2022/04/03 13:06:28;;;;;;;5.13;3.73;;;;;;;3.59;63.18;96949.86;1756030;82;21016;-79
2022/04/03 13:09:03;;;;;;;3.40;3.08;;;;;;;3.61;62.83;96932.38;1755666;82;21050;-79